Time;durP1;ratioP1;P1;durP2;ratioP2;P2;SDS_P1;SDS_P2;PMS_P1;PMS_P2;Temp;Humidity;BMP_temperature;BMP_pressure;BME280_temperature;BME280_humidity;BME280_pressure;Samples;Min_cycle;Max_cycle;Signal;HPM_P1;HPM_P2
2021/01/18 00:00:34;;;;;;;;;;;26.10;37.20;;;;;;5032971;28;20401;-50
2021/01/18 00:03:01;;;;;;;;;;;26.10;37.40;;;;;;5034350;28;19971;-44
2021/01/18 00:05:26;;;;;;;;;;;26.20;37.30;;;;;;5033787;28;19971;-45
2021/01/18 00:07:52;;;;;;;;;;;26.40;36.70;;;;;;5034170;28;19967;-43
2021/01/18 00:10:18;;;;;;;;;;;26.60;36.30;;;;;;5033380;28;19917;-42
2021/01/18 00:12:47;;;;;;;;;;;26.80;36.00;;;;;;5034074;28;19919;-42
2021/01/18 00:15:13;;;;;;;;;;;26.90;35.60;;;;;;5033310;28;20127;-43
2021/01/18 00:17:38;;;;;;;;;;;27.00;35.60;;;;;;5033946;28;19957;-43
2021/01/18 00:20:04;;;;;;;;;;;27.00;35.40;;;;;;5033246;28;20051;-44
2021/01/18 00:22:30;;;;;;;;;;;27.00;35.70;;;;;;5033635;28;19928;-44
2021/01/18 00:24:55;;;;;;;;;;;27.00;35.90;;;;;;5033196;28;19909;-46
2021/01/18 00:27:21;;;;;;;;;;;26.80;36.00;;;;;;5033647;28;19975;-61
2021/01/18 00:29:48;;;;;;;;;;;26.70;36.40;;;;;;5033267;28;19913;-62
2021/01/18 00:32:14;;;;;;;;;;;26.70;36.20;;;;;;5033515;28;19913;-63
2021/01/18 00:34:39;;;;;;;;;;;26.70;37.60;;;;;;5033820;28;19916;-49
2021/01/18 00:37:05;;;;;;;;;;;26.60;38.00;;;;;;5033690;28;19913;-49
2021/01/18 00:39:31;;;;;;;;;;;26.70;38.00;;;;;;5032704;28;19956;-65
2021/01/18 00:41:56;;;;;;;;;;;26.90;39.80;;;;;;5032550;28;19921;-65
2021/01/18 00:44:21;;;;;;;;;;;26.90;41.00;;;;;;5032746;28;20428;-65
2021/01/18 00:46:47;;;;;;;;;;;27.00;41.00;;;;;;5033057;28;20047;-65
2021/01/18 00:49:12;;;;;;;;;;;26.90;40.80;;;;;;5033297;28;19967;-66
2021/01/18 00:51:38;;;;;;;;;;;26.90;40.70;;;;;;5033221;28;19913;-66
2021/01/18 00:54:04;;;;;;;;;;;26.90;40.80;;;;;;5032840;28;19924;-63
2021/01/18 00:56:29;;;;;;;;;;;26.90;41.20;;;;;;5032905;28;19937;-55
2021/01/18 00:58:55;;;;;;;;;;;26.90;41.40;;;;;;5033398;28;19913;-50
2021/01/18 01:01:20;;;;;;;;;;;26.80;41.80;;;;;;5045957;28;20289;-63
2021/01/18 01:03:46;;;;;;;;;;;26.90;41.50;;;;;;5052959;28;19913;-56
2021/01/18 01:06:11;;;;;;;;;;;26.80;41.70;;;;;;5033392;28;19917;-70
2021/01/18 01:08:37;;;;;;;;;;;26.70;41.50;;;;;;5033323;28;20063;-45
2021/01/18 01:11:02;;;;;;;;;;;26.80;41.60;;;;;;5047524;28;19920;-56
2021/01/18 01:13:27;;;;;;;;;;;26.70;42.10;;;;;;5032309;28;20039;-52
2021/01/18 01:15:53;;;;;;;;;;;26.70;42.60;;;;;;5032522;28;19913;-47
2021/01/18 01:18:19;;;;;;;;;;;26.70;41.40;;;;;;5033086;28;19995;-50
2021/01/18 01:20:44;;;;;;;;;;;26.70;41.70;;;;;;5033211;28;19956;-57
2021/01/18 01:23:10;;;;;;;;;;;26.70;41.30;;;;;;5032755;28;20027;-52
2021/01/18 01:25:35;;;;;;;;;;;26.70;41.60;;;;;;5032800;28;19909;-49
2021/01/18 01:28:01;;;;;;;;;;;26.70;41.00;;;;;;5031851;28;20007;-47
2021/01/18 01:30:26;;;;;;;;;;;26.80;41.00;;;;;;5033025;28;19915;-48
2021/01/18 01:32:52;;;;;;;;;;;27.00;40.50;;;;;;5030983;28;19920;-64
2021/01/18 01:35:20;;;;;;;;;;;26.90;40.90;;;;;;5030108;28;20590;-68
2021/01/18 01:37:46;;;;;;;;;;;26.90;40.10;;;;;;5030502;28;19913;-62
2021/01/18 01:40:12;;;;;;;;;;;27.00;40.00;;;;;;5032599;28;19913;-65
2021/01/18 01:42:38;;;;;;;;;;;27.00;39.80;;;;;;5032329;28;19917;-65
2021/01/18 01:45:04;;;;;;;;;;;27.10;39.70;;;;;;5032867;28;19967;-71
2021/01/18 01:47:34;;;;;;;;;;;27.10;39.40;;;;;;5032686;28;19910;-72
2021/01/18 01:50:01;;;;;;;;;;;27.20;39.30;;;;;;5048138;28;19991;-73
2021/01/18 01:52:26;;;;;;;;;;;27.20;39.20;;;;;;5032882;28;19909;-74
2021/01/18 01:54:55;;;;;;;;;;;27.20;39.10;;;;;;5032258;28;19932;-65
2021/01/18 01:57:21;;;;;;;;;;;27.10;39.10;;;;;;5032495;28;20324;-58
2021/01/18 01:59:46;;;;;;;;;;;27.10;39.00;;;;;;5032860;28;19913;-60
2021/01/18 02:02:13;;;;;;;;;;;27.10;39.00;;;;;;5032516;28;19921;-60
2021/01/18 02:04:38;;;;;;;;;;;27.10;39.00;;;;;;5031360;28;19909;-62
2021/01/18 02:07:20;;;;;;;;;;;27.10;39.00;;;;;;5031508;28;19991;-61
2021/01/18 02:09:45;;;;;;;;;;;27.10;38.80;;;;;;5032710;28;20277;-63
2021/01/18 02:12:11;;;;;;;;;;;27.20;38.70;;;;;;5032620;28;19909;-67
2021/01/18 02:14:37;;;;;;;;;;;27.20;38.50;;;;;;5031190;28;20366;-77
2021/01/18 02:17:05;;;;;;;;;;;27.30;38.30;;;;;;5032557;28;19955;-67
2021/01/18 02:19:42;;;;;;;;;;;27.30;38.10;;;;;;5032586;28;19909;-68
2021/01/18 02:22:26;;;;;;;;;;;27.40;38.00;;;;;;5032399;28;19921;-71
2021/01/18 02:25:04;;;;;;;;;;;27.40;37.90;;;;;;5035639;28;20370;-70
2021/01/18 02:27:35;;;;;;;;;;;27.40;37.80;;;;;;5051321;28;19963;-70
2021/01/18 02:30:01;;;;;;;;;;;27.30;37.80;;;;;;5051455;28;19909;-70
2021/01/18 02:32:45;;;;;;;;;;;27.20;37.70;;;;;;5035641;28;19962;-69
2021/01/18 02:35:17;;;;;;;;;;;27.30;37.60;;;;;;5035772;28;19917;-67
2021/01/18 02:37:52;;;;;;;;;;;27.30;37.60;;;;;;5035736;28;19913;-68
2021/01/18 02:40:40;;;;;;;;;;;27.20;37.70;;;;;;5035580;28;19949;-62
2021/01/18 02:43:07;;;;;;;;;;;27.10;37.70;;;;;;5035360;28;20011;-66
2021/01/18 02:45:32;;;;;;;;;;;27.00;38.10;;;;;;5051031;28;19910;-69
2021/01/18 02:47:58;;;;;;;;;;;27.20;37.80;;;;;;5050941;28;19963;-66
2021/01/18 02:50:23;;;;;;;;;;;27.40;37.40;;;;;;5051122;28;19909;-63
2021/01/18 02:52:49;;;;;;;;;;;27.50;37.20;;;;;;5035452;28;19916;-68
2021/01/18 02:55:16;;;;;;;;;;;27.60;36.90;;;;;;5049961;28;19932;-68
2021/01/18 02:57:43;;;;;;;;;;;27.70;36.80;;;;;;5035169;28;19913;-65
2021/01/18 03:00:11;;;;;;;;;;;27.70;36.50;;;;;;5035389;28;19978;-61
2021/01/18 03:02:37;;;;;;;;;;;27.80;36.50;;;;;;5050372;28;19956;-59
2021/01/18 03:05:02;;;;;;;;;;;27.80;36.40;;;;;;5034928;28;19952;-60
2021/01/18 03:07:46;;;;;;;;;;;27.80;36.40;;;;;;5035342;28;19917;-62
2021/01/18 03:10:38;;;;;;;;;;;27.80;36.30;;;;;;5034897;28;19913;-64
2021/01/18 03:13:10;;;;;;;;;;;27.70;36.20;;;;;;5026260;28;19909;-71
2021/01/18 03:15:40;;;;;;;;;;;27.70;36.70;;;;;;5035019;28;19913;-73
2021/01/18 03:18:06;;;;;;;;;;;27.70;36.30;;;;;;5035104;28;19913;-65
2021/01/18 03:20:31;;;;;;;;;;;27.70;36.90;;;;;;5034647;28;20271;-60
2021/01/18 03:22:57;;;;;;;;;;;;;;;;;;5034834;28;19924;-46
2021/01/18 03:25:24;;;;;;;;;;;27.50;36.30;;;;;;5034509;28;19952;-46
2021/01/18 03:27:50;;;;;;;;;;;27.60;36.50;;;;;;5034551;28;19909;-53
2021/01/18 03:30:17;;;;;;;;;;;27.50;36.10;;;;;;5034853;28;19941;-62
2021/01/18 03:32:42;;;;;;;;;;;27.40;36.60;;;;;;5034179;28;19924;-61
2021/01/18 03:35:08;;;;;;;;;;;27.30;36.90;;;;;;5033447;28;19917;-60
2021/01/18 03:37:33;;;;;;;;;;;27.30;37.00;;;;;;5034115;28;20377;-61
2021/01/18 03:39:59;;;;;;;;;;;27.30;37.00;;;;;;5033372;28;19919;-62
2021/01/18 03:42:24;;;;;;;;;;;27.20;37.00;;;;;;5034091;28;19921;-62
2021/01/18 03:44:50;;;;;;;;;;;27.20;37.00;;;;;;5034343;28;19987;-62
2021/01/18 03:47:15;;;;;;;;;;;27.20;37.00;;;;;;5034519;28;20342;-61
2021/01/18 03:49:41;;;;;;;;;;;27.20;37.00;;;;;;5033794;28;19917;-61
2021/01/18 03:52:08;;;;;;;;;;;27.20;37.00;;;;;;5034434;28;19909;-60
2021/01/18 03:54:33;;;;;;;;;;;27.20;37.10;;;;;;5033761;28;19976;-59
2021/01/18 03:56:59;;;;;;;;;;;27.20;37.10;;;;;;5034024;28;20302;-61
2021/01/18 03:59:24;;;;;;;;;;;27.10;37.00;;;;;;5034252;28;19909;-62
2021/01/18 04:01:50;;;;;;;;;;;27.10;37.00;;;;;;5033934;28;20424;-61
2021/01/18 04:04:15;;;;;;;;;;;27.10;37.00;;;;;;5033566;28;19913;-59
2021/01/18 04:06:41;;;;;;;;;;;27.10;37.00;;;;;;5034113;28;19913;-61
2021/01/18 04:09:06;;;;;;;;;;;27.10;37.00;;;;;;5033528;28;20263;-61
2021/01/18 04:11:32;;;;;;;;;;;27.10;37.00;;;;;;5034118;28;19936;-61
2021/01/18 04:13:57;;;;;;;;;;;27.10;37.00;;;;;;5033538;28;20003;-61
2021/01/18 04:16:23;;;;;;;;;;;27.10;36.90;;;;;;5033650;28;19909;-60
2021/01/18 04:18:48;;;;;;;;;;;27.10;36.90;;;;;;5033364;28;19909;-61
2021/01/18 04:21:17;;;;;;;;;;;27.00;36.90;;;;;;5033510;28;19913;-61
2021/01/18 04:23:42;;;;;;;;;;;27.10;37.00;;;;;;5033386;28;19917;-62
2021/01/18 04:26:08;;;;;;;;;;;27.00;36.80;;;;;;5033113;28;19913;-62
2021/01/18 04:28:33;;;;;;;;;;;27.00;36.80;;;;;;5033222;28;19920;-61
2021/01/18 04:30:59;;;;;;;;;;;27.00;36.80;;;;;;5033434;28;19913;-61
2021/01/18 04:33:24;;;;;;;;;;;27.00;36.80;;;;;;5033272;28;19915;-60
2021/01/18 04:35:53;;;;;;;;;;;27.00;36.80;;;;;;5032792;28;20418;-62
2021/01/18 04:38:19;;;;;;;;;;;27.00;37.00;;;;;;5033457;28;20016;-60
2021/01/18 04:40:44;;;;;;;;;;;27.00;36.80;;;;;;5051766;28;20007;-61
2021/01/18 04:43:10;;;;;;;;;;;27.00;36.80;;;;;;5053257;28;19916;-61
2021/01/18 04:45:36;;;;;;;;;;;27.00;36.90;;;;;;5037795;28;19913;-61
2021/01/18 04:48:01;;;;;;;;;;;27.00;36.80;;;;;;5033251;28;19915;-61
2021/01/18 04:50:28;;;;;;;;;;;27.00;36.90;;;;;;5032872;28;19940;-61
2021/01/18 04:52:54;;;;;;;;;;;27.00;36.80;;;;;;5032777;28;19917;-61
2021/01/18 04:55:19;;;;;;;;;;;27.00;36.70;;;;;;5032667;28;19921;-62
2021/01/18 04:57:47;;;;;;;;;;;27.00;36.70;;;;;;5033299;28;20438;-60
2021/01/18 05:00:13;;;;;;;;;;;27.00;36.70;;;;;;5032710;28;19913;-61
2021/01/18 05:02:39;;;;;;;;;;;27.00;36.70;;;;;;5031571;28;20416;-62
2021/01/18 05:05:06;;;;;;;;;;;27.00;36.70;;;;;;5032704;28;20022;-62
2021/01/18 05:07:33;;;;;;;;;;;27.00;36.70;;;;;;5031738;28;20370;-61
2021/01/18 05:10:08;;;;;;;;;;;27.00;36.70;;;;;;5031811;28;19909;-61
2021/01/18 05:12:40;;;;;;;;;;;26.90;36.60;;;;;;5033118;28;19920;-61
2021/01/18 05:15:06;;;;;;;;;;;26.90;36.60;;;;;;5032736;28;19910;-61
2021/01/18 05:17:31;;;;;;;;;;;27.00;36.70;;;;;;5033191;28;19936;-61
2021/01/18 05:19:57;;;;;;;;;;;27.00;36.60;;;;;;5032788;28;19960;-59
2021/01/18 05:22:22;;;;;;;;;;;27.00;36.60;;;;;;5031899;28;19971;-61
2021/01/18 05:24:48;;;;;;;;;;;26.90;36.50;;;;;;5032467;28;20318;-61
2021/01/18 05:27:13;;;;;;;;;;;27.00;36.60;;;;;;5031429;28;20004;-61
2021/01/18 05:29:39;;;;;;;;;;;26.90;36.50;;;;;;5032530;28;19913;-61
2021/01/18 05:32:20;;;;;;;;;;;26.90;36.40;;;;;;5032646;28;19916;-60
2021/01/18 05:34:46;;;;;;;;;;;27.00;36.50;;;;;;5032989;28;20330;-62
2021/01/18 05:37:12;;;;;;;;;;;27.00;36.50;;;;;;5032484;28;19955;-61
2021/01/18 05:39:37;;;;;;;;;;;26.90;36.40;;;;;;5031192;28;19917;-60
2021/01/18 05:42:03;;;;;;;;;;;26.90;36.40;;;;;;5032567;28;19924;-61
2021/01/18 05:44:35;;;;;;;;;;;26.90;36.50;;;;;;5030541;28;19913;-61
2021/01/18 05:47:07;;;;;;;;;;;26.90;36.50;;;;;;5032449;28;20393;-61
2021/01/18 05:49:39;;;;;;;;;;;26.90;36.40;;;;;;5032653;28;20008;-61
2021/01/18 05:52:04;;;;;;;;;;;26.90;36.50;;;;;;5027528;28;20370;-61
2021/01/18 05:54:30;;;;;;;;;;;26.90;36.40;;;;;;5032196;28;19954;-57
2021/01/18 05:56:55;;;;;;;;;;;26.90;36.40;;;;;;5032729;28;19921;-61
2021/01/18 05:59:24;;;;;;;;;;;26.90;36.40;;;;;;5035264;28;20378;-61
2021/01/18 06:01:50;;;;;;;;;;;26.90;36.40;;;;;;5029926;28;19917;-61
2021/01/18 06:04:27;;;;;;;;;;;26.90;36.40;;;;;;5036269;28;19913;-59
2021/01/18 06:06:56;;;;;;;;;;;26.90;36.40;;;;;;5036053;28;19917;-59
2021/01/18 06:09:23;;;;;;;;;;;26.90;36.30;;;;;;5035830;28;19913;-58
2021/01/18 06:11:48;;;;;;;;;;;27.00;36.40;;;;;;5036343;28;19913;-60
2021/01/18 06:14:14;;;;;;;;;;;26.90;36.30;;;;;;5035924;28;19913;-61
2021/01/18 06:16:40;;;;;;;;;;;26.90;36.30;;;;;;5034771;28;19920;-57
2021/01/18 06:19:08;;;;;;;;;;;27.00;37.00;;;;;;5035783;28;20000;-60
2021/01/18 06:21:35;;;;;;;;;;;26.90;36.30;;;;;;5036110;28;19917;-59
2021/01/18 06:24:16;;;;;;;;;;;26.90;36.30;;;;;;5035899;28;19916;-61
2021/01/18 06:26:41;;;;;;;;;;;26.90;36.30;;;;;;5036081;28;19935;-61
2021/01/18 06:29:07;;;;;;;;;;;26.90;36.30;;;;;;5035473;28;19913;-60
2021/01/18 06:31:45;;;;;;;;;;;26.90;36.30;;;;;;5036052;28;19925;-61
2021/01/18 06:34:10;;;;;;;;;;;26.90;36.30;;;;;;5035668;28;19916;-58
2021/01/18 06:36:36;;;;;;;;;;;26.90;36.30;;;;;;5035856;28;19913;-62
2021/01/18 06:39:05;;;;;;;;;;;26.90;36.20;;;;;;5035204;28;19917;-59
2021/01/18 06:41:34;;;;;;;;;;;27.00;36.30;;;;;;5035774;28;19913;-58
2021/01/18 06:44:00;;;;;;;;;;;26.90;36.20;;;;;;5035385;28;19917;-61
2021/01/18 06:46:28;;;;;;;;;;;26.90;36.20;;;;;;5034919;28;19913;-62
2021/01/18 06:48:54;;;;;;;;;;;26.90;36.20;;;;;;5015842;28;19960;-61
2021/01/18 06:51:20;;;;;;;;;;;27.00;36.30;;;;;;5015635;28;20345;-61
2021/01/18 06:53:47;;;;;;;;;;;26.90;36.20;;;;;;5015301;28;19909;-62
2021/01/18 06:56:21;;;;;;;;;;;26.90;36.20;;;;;;5034047;28;19967;-60
2021/01/18 06:59:02;;;;;;;;;;;26.90;36.20;;;;;;5035154;28;19913;-61
2021/01/18 07:01:31;;;;;;;;;;;26.90;36.20;;;;;;5025803;28;19913;-62
2021/01/18 07:04:03;;;;;;;;;;;26.90;36.20;;;;;;5035207;28;19913;-60
2021/01/18 07:06:41;;;;;;;;;;;26.90;36.20;;;;;;5027591;28;19913;-61
2021/01/18 07:09:11;;;;;;;;;;;26.90;36.20;;;;;;5034208;28;19932;-61
2021/01/18 07:11:37;;;;;;;;;;;26.90;36.20;;;;;;5034658;28;19909;-59
2021/01/18 07:14:03;;;;;;;;;;;26.90;36.20;;;;;;5034537;28;19920;-61
2021/01/18 07:16:28;;;;;;;;;;;26.90;36.10;;;;;;5034944;28;19909;-60
2021/01/18 07:18:55;;;;;;;;;;;26.90;36.10;;;;;;5033761;28;19909;-61
2021/01/18 07:21:20;;;;;;;;;;;26.90;36.10;;;;;;5034765;28;19932;-60
2021/01/18 07:23:55;;;;;;;;;;;26.90;36.10;;;;;;5034241;28;19917;-61
2021/01/18 07:26:27;;;;;;;;;;;26.90;36.10;;;;;;5014799;28;19917;-61
2021/01/18 07:28:56;;;;;;;;;;;26.90;36.10;;;;;;5034242;28;19948;-61
2021/01/18 07:31:21;;;;;;;;;;;26.90;36.10;;;;;;5034637;28;19909;-59
2021/01/18 07:33:47;;;;;;;;;;;26.90;36.10;;;;;;5034568;28;19924;-61
2021/01/18 07:36:27;;;;;;;;;;;26.90;36.10;;;;;;5034422;28;19924;-60
2021/01/18 07:38:53;;;;;;;;;;;26.90;36.10;;;;;;5034514;28;19913;-61
2021/01/18 07:41:20;;;;;;;;;;;26.90;36.00;;;;;;5034584;28;20022;-58
2021/01/18 07:43:48;;;;;;;;;;;26.90;35.90;;;;;;5034257;28;20430;-58
2021/01/18 07:46:17;;;;;;;;;;;26.90;35.90;;;;;;5034230;28;19916;-58
2021/01/18 07:48:42;;;;;;;;;;;26.90;36.00;;;;;;5034405;28;19999;-60
2021/01/18 07:51:08;;;;;;;;;;;27.00;36.00;;;;;;5033933;28;20047;-61
2021/01/18 07:53:33;;;;;;;;;;;27.00;36.00;;;;;;5045274;28;19920;-62
2021/01/18 07:56:02;;;;;;;;;;;27.00;36.00;;;;;;5036860;28;20435;-57
2021/01/18 07:58:29;;;;;;;;;;;26.90;35.90;;;;;;5033652;28;19920;-73
2021/01/18 08:01:05;;;;;;;;;;;26.40;30.00;;;;;;5032244;28;19963;-66
2021/01/18 08:03:30;;;;;;;;;;;26.00;28.70;;;;;;5033932;28;20016;-73
2021/01/18 08:06:06;;;;;;;;;;;25.60;27.60;;;;;;5035093;28;19952;-81
2021/01/18 08:08:33;;;;;;;;;;;25.60;31.40;;;;;;5035096;28;19917;-75
2021/01/18 08:10:58;;;;;;;;;;;25.90;32.20;;;;;;5035362;28;19936;-72
2021/01/18 08:13:43;;;;;;;;;;;26.20;32.60;;;;;;5034442;28;19917;-66
2021/01/18 08:16:12;;;;;;;;;;;26.50;33.00;;;;;;5033453;28;19917;-68
2021/01/18 08:18:47;;;;;;;;;;;26.90;33.10;;;;;;5033714;28;19909;-72
2021/01/18 08:21:31;;;;;;;;;;;27.30;33.00;;;;;;5033401;28;20003;-68
2021/01/18 08:23:57;;;;;;;;;;;27.50;33.00;;;;;;5033385;28;19925;-75
2021/01/18 08:26:22;;;;;;;;;;;27.70;33.20;;;;;;5033390;28;20282;-69
2021/01/18 08:28:48;;;;;;;;;;;27.80;33.10;;;;;;5033875;28;19910;-73
2021/01/18 08:31:14;;;;;;;;;;;28.00;33.30;;;;;;5032658;28;19913;-76
2021/01/18 08:33:39;;;;;;;;;;;28.10;33.40;;;;;;5033448;28;19920;-77
2021/01/18 08:36:05;;;;;;;;;;;28.20;33.50;;;;;;5032873;28;19913;-78
2021/01/18 08:38:31;;;;;;;;;;;28.30;33.70;;;;;;5033730;28;19915;-71
2021/01/18 08:41:00;;;;;;;;;;;28.30;33.80;;;;;;5033111;28;19917;-67
2021/01/18 08:43:26;;;;;;;;;;;28.40;33.90;;;;;;5033187;28;19918;-70
2021/01/18 08:45:53;;;;;;;;;;;28.50;33.90;;;;;;5031780;28;19913;-67
2021/01/18 08:48:19;;;;;;;;;;;28.50;34.70;;;;;;5032287;28;19916;-64
2021/01/18 08:50:53;;;;;;;;;;;28.60;34.30;;;;;;5032976;28;19967;-69
2021/01/18 08:53:26;;;;;;;;;;;28.60;34.30;;;;;;5033311;28;19909;-71
2021/01/18 08:55:55;;;;;;;;;;;28.70;34.60;;;;;;5033004;28;19921;-70
2021/01/18 08:58:29;;;;;;;;;;;28.70;34.80;;;;;;5031557;28;19913;-67
2021/01/18 09:00:56;;;;;;;;;;;28.80;35.00;;;;;;5032671;28;19917;-69
2021/01/18 09:03:22;;;;;;;;;;;28.80;35.10;;;;;;5033269;28;19924;-69
2021/01/18 09:05:48;;;;;;;;;;;28.80;35.20;;;;;;5033320;28;19917;-64
2021/01/18 09:08:14;;;;;;;;;;;28.80;36.10;;;;;;5033373;28;19917;-69
2021/01/18 09:10:39;;;;;;;;;;;28.70;36.70;;;;;;5033071;28;19917;-67
2021/01/18 09:13:05;;;;;;;;;;;28.80;36.80;;;;;;5033013;28;19959;-65
2021/01/18 09:15:31;;;;;;;;;;;28.80;36.70;;;;;;5033237;28;19917;-68
2021/01/18 09:17:56;;;;;;;;;;;28.90;37.40;;;;;;5033054;28;19913;-69
2021/01/18 09:20:22;;;;;;;;;;;28.90;38.20;;;;;;5033144;28;20437;-70
2021/01/18 09:22:47;;;;;;;;;;;28.90;37.10;;;;;;5032717;28;19927;-68
2021/01/18 09:25:13;;;;;;;;;;;29.00;36.60;;;;;;5032332;28;19917;-67
2021/01/18 09:27:39;;;;;;;;;;;29.00;37.10;;;;;;5032913;28;19922;-61
2021/01/18 09:30:05;;;;;;;;;;;29.00;38.10;;;;;;5032656;28;19917;-65
2021/01/18 09:32:30;;;;;;;;;;;29.00;37.20;;;;;;5033198;28;19909;-67
2021/01/18 09:35:14;;;;;;;;;;;29.00;36.60;;;;;;5036485;28;19910;-67
2021/01/18 09:37:43;;;;;;;;;;;29.10;36.40;;;;;;5036481;28;19920;-63
2021/01/18 09:40:09;;;;;;;;;;;29.10;36.30;;;;;;5036452;28;20337;-58
2021/01/18 09:42:38;;;;;;;;;;;29.20;36.30;;;;;;5035530;28;19917;-66
2021/01/18 09:45:06;;;;;;;;;;;29.20;36.20;;;;;;5036456;28;19963;-69
2021/01/18 09:47:32;;;;;;;;;;;29.20;36.20;;;;;;5034750;28;20046;-69
2021/01/18 09:50:13;;;;;;;;;;;29.20;36.20;;;;;;5036861;28;20655;-66
2021/01/18 09:52:40;;;;;;;;;;;29.30;36.20;;;;;;5035779;28;19920;-62
2021/01/18 09:55:08;;;;;;;;;;;29.40;36.30;;;;;;5036173;28;19921;-64
2021/01/18 09:57:33;;;;;;;;;;;29.40;36.20;;;;;;5034872;28;19917;-66
2021/01/18 09:59:59;;;;;;;;;;;29.40;36.20;;;;;;5035419;28;20354;-65
2021/01/18 10:02:24;;;;;;;;;;;29.40;36.20;;;;;;5036115;28;19913;-66
2021/01/18 10:04:50;;;;;;;;;;;29.40;36.20;;;;;;5036352;28;19962;-65
2021/01/18 10:07:15;;;;;;;;;;;29.40;36.20;;;;;;5036282;28;19920;-65
2021/01/18 10:09:41;;;;;;;;;;;29.40;36.20;;;;;;5035999;28;20354;-66
2021/01/18 10:12:06;;;;;;;;;;;29.50;36.30;;;;;;5035752;28;19936;-63
2021/01/18 10:14:32;;;;;;;;;;;29.50;36.30;;;;;;5033074;28;19916;-65
2021/01/18 10:16:57;;;;;;;;;;;29.50;36.30;;;;;;5036219;28;19913;-67
2021/01/18 10:19:23;;;;;;;;;;;29.40;36.30;;;;;;5036125;28;19913;-66
2021/01/18 10:21:48;;;;;;;;;;;29.50;36.30;;;;;;5035920;28;20375;-65
2021/01/18 10:24:23;;;;;;;;;;;29.50;36.30;;;;;;5035754;28;19913;-65
2021/01/18 10:26:48;;;;;;;;;;;29.60;36.30;;;;;;5035985;28;20321;-64
2021/01/18 10:29:17;;;;;;;;;;;29.60;36.30;;;;;;5034718;28;19913;-68
2021/01/18 10:31:50;;;;;;;;;;;29.60;36.30;;;;;;5034364;28;20394;-64
2021/01/18 10:34:21;;;;;;;;;;;29.60;36.40;;;;;;5035581;28;19967;-63
2021/01/18 10:36:50;;;;;;;;;;;29.60;36.50;;;;;;5035470;28;20004;-64
2021/01/18 10:39:27;;;;;;;;;;;29.60;36.60;;;;;;5035661;28;20000;-70
2021/01/18 10:41:53;;;;;;;;;;;29.60;36.60;;;;;;5035254;28;19952;-66
2021/01/18 10:44:21;;;;;;;;;;;29.60;36.50;;;;;;5035111;28;20453;-67
2021/01/18 10:46:49;;;;;;;;;;;29.60;36.60;;;;;;5035721;28;19955;-65
2021/01/18 10:49:22;;;;;;;;;;;29.70;36.70;;;;;;5034937;28;20040;-65
2021/01/18 10:51:56;;;;;;;;;;;29.70;36.60;;;;;;5035116;28;19925;-65
2021/01/18 10:54:22;;;;;;;;;;;29.70;36.50;;;;;;5035058;28;19921;-69
2021/01/18 10:56:47;;;;;;;;;;;29.70;36.50;;;;;;5035037;28;20358;-67
2021/01/18 10:59:13;;;;;;;;;;;29.70;36.60;;;;;;5033751;28;19962;-60
2021/01/18 11:01:38;;;;;;;;;;;29.70;36.60;;;;;;5034708;28;19920;-64
2021/01/18 11:04:04;;;;;;;;;;;29.80;36.70;;;;;;5034780;28;19983;-69
2021/01/18 11:06:32;;;;;;;;;;;29.80;36.70;;;;;;5035237;28;19913;-61
2021/01/18 11:08:58;;;;;;;;;;;29.80;37.30;;;;;;5034113;28;20015;-75
2021/01/18 11:11:25;;;;;;;;;;;29.60;34.20;;;;;;5043606;28;20418;-53
2021/01/18 11:14:00;;;;;;;;;;;28.70;25.70;;;;;;5040808;28;19917;-53
2021/01/18 11:16:26;;;;;;;;;;;27.90;30.00;;;;;;5052299;28;19920;-60
2021/01/18 11:18:57;;;;;;;;;;;27.90;31.00;;;;;;5034881;28;19909;-58
2021/01/18 11:21:26;;;;;;;;;;;28.30;30.90;;;;;;5034494;28;20386;-48
2021/01/18 11:23:52;;;;;;;;;;;28.50;31.40;;;;;;5034594;28;19975;-60
2021/01/18 11:26:17;;;;;;;;;;;28.70;31.30;;;;;;5034710;28;19957;-58
2021/01/18 11:28:43;;;;;;;;;;;28.90;31.10;;;;;;5034752;28;19987;-58
2021/01/18 11:31:08;;;;;;;;;;;29.10;31.00;;;;;;5034702;28;20313;-60
2021/01/18 11:33:34;;;;;;;;;;;29.20;31.00;;;;;;5034613;28;19913;-62
2021/01/18 11:36:00;;;;;;;;;;;29.30;31.00;;;;;;5034492;28;20393;-52
2021/01/18 11:38:26;;;;;;;;;;;29.00;31.70;;;;;;5034360;28;20294;-54
2021/01/18 11:40:51;;;;;;;;;;;28.80;32.10;;;;;;5033697;28;19909;-50
2021/01/18 11:43:17;;;;;;;;;;;28.80;31.90;;;;;;5033855;28;19922;-50
2021/01/18 11:45:42;;;;;;;;;;;28.70;32.50;;;;;;5033827;28;19960;-54
2021/01/18 11:48:08;;;;;;;;;;;28.60;32.20;;;;;;5034361;28;19913;-50
2021/01/18 11:50:33;;;;;;;;;;;28.60;32.40;;;;;;5034459;28;19954;-52
2021/01/18 11:52:59;;;;;;;;;;;28.50;33.10;;;;;;5034257;28;20263;-57
2021/01/18 11:55:24;;;;;;;;;;;28.50;33.50;;;;;;5031554;28;19928;-53
2021/01/18 11:57:50;;;;;;;;;;;28.50;34.00;;;;;;5032952;28;19959;-56
2021/01/18 12:00:18;;;;;;;;;;;28.40;34.10;;;;;;5034177;28;19913;-53
2021/01/18 12:02:44;;;;;;;;;;;28.50;34.20;;;;;;5034074;28;20274;-56
2021/01/18 12:05:10;;;;;;;;;;;28.40;34.20;;;;;;5033899;28;20362;-57
2021/01/18 12:07:35;;;;;;;;;;;28.40;34.30;;;;;;5034061;28;19916;-55
2021/01/18 12:10:00;;;;;;;;;;;28.40;34.40;;;;;;5033168;28;19924;-54
2021/01/18 12:12:26;;;;;;;;;;;28.40;34.50;;;;;;5033505;28;20435;-56
2021/01/18 12:14:51;;;;;;;;;;;28.40;34.60;;;;;;5033293;28;19916;-52
2021/01/18 12:17:17;;;;;;;;;;;28.30;34.80;;;;;;5033691;28;19944;-60
2021/01/18 12:19:42;;;;;;;;;;;28.20;34.30;;;;;;5033618;28;20357;-63
2021/01/18 12:22:08;;;;;;;;;;;28.30;34.00;;;;;;5033321;28;19921;-64
2021/01/18 12:24:33;;;;;;;;;;;28.40;33.90;;;;;;5033609;28;20023;-58
2021/01/18 12:26:59;;;;;;;;;;;28.40;34.40;;;;;;5033612;28;20426;-59
2021/01/18 12:29:24;;;;;;;;;;;28.40;34.20;;;;;;5033346;28;19909;-54
2021/01/18 12:31:50;;;;;;;;;;;28.30;34.80;;;;;;5033290;28;19909;-60
2021/01/18 12:34:15;;;;;;;;;;;28.30;34.70;;;;;;5033268;28;20008;-63
2021/01/18 12:36:41;;;;;;;;;;;28.40;34.80;;;;;;5033055;28;20364;-61
2021/01/18 12:39:10;;;;;;;;;;;28.50;34.80;;;;;;5033184;28;20387;-63
2021/01/18 12:41:36;;;;;;;;;;;28.50;34.60;;;;;;5033349;28;19944;-65
2021/01/18 12:44:01;;;;;;;;;;;28.50;34.40;;;;;;5032963;28;19913;-63
2021/01/18 12:46:27;;;;;;;;;;;28.50;34.80;;;;;;5032976;28;19917;-61
2021/01/18 12:48:52;;;;;;;;;;;28.50;34.70;;;;;;5032795;28;19924;-59
2021/01/18 12:51:18;;;;;;;;;;;28.50;34.20;;;;;;5033003;28;20046;-67
2021/01/18 12:53:44;;;;;;;;;;;28.50;34.40;;;;;;5031474;28;19909;-66
2021/01/18 12:56:18;;;;;;;;;;;28.50;34.30;;;;;;5033143;28;20024;-62
2021/01/18 12:58:43;;;;;;;;;;;28.50;34.30;;;;;;5033179;28;19913;-63
2021/01/18 13:01:09;;;;;;;;;;;28.50;34.50;;;;;;5032685;28;20481;-61
2021/01/18 13:03:35;;;;;;;;;;;28.60;34.80;;;;;;5032771;28;19924;-66
2021/01/18 13:06:00;;;;;;;;;;;28.60;34.90;;;;;;5032549;28;19913;-65
2021/01/18 13:08:26;;;;;;;;;;;28.60;34.70;;;;;;5033161;28;19998;-62
2021/01/18 13:10:58;;;;;;;;;;;28.60;34.50;;;;;;5032452;28;20390;-65
2021/01/18 13:13:23;;;;;;;;;;;28.60;34.80;;;;;;5032526;28;19920;-64
2021/01/18 13:15:49;;;;;;;;;;;28.50;35.00;;;;;;5032762;28;19996;-66
2021/01/18 13:18:14;;;;;;;;;;;28.50;34.20;;;;;;5033065;28;20365;-65
2021/01/18 13:20:40;;;;;;;;;;;28.50;34.50;;;;;;5032745;28;20362;-61
2021/01/18 13:23:05;;;;;;;;;;;28.50;34.60;;;;;;5032484;28;19968;-60
2021/01/18 13:25:31;;;;;;;;;;;28.60;35.40;;;;;;5032352;28;19913;-58
2021/01/18 13:27:56;;;;;;;;;;;28.60;34.70;;;;;;5032124;28;20338;-62
2021/01/18 13:30:22;;;;;;;;;;;28.60;34.90;;;;;;5032932;28;19913;-60
2021/01/18 13:32:48;;;;;;;;;;;28.50;35.20;;;;;;5032285;28;20294;-62
2021/01/18 13:35:13;;;;;;;;;;;28.60;35.00;;;;;;5032995;28;19932;-60
2021/01/18 13:37:39;;;;;;;;;;;28.60;34.10;;;;;;5032520;28;20413;-60
2021/01/18 13:40:05;;;;;;;;;;;28.60;34.10;;;;;;5032250;28;19913;-64
2021/01/18 13:42:30;;;;;;;;;;;28.60;34.90;;;;;;5032675;28;19925;-60
2021/01/18 13:44:56;;;;;;;;;;;28.60;34.70;;;;;;5032251;28;19913;-64
2021/01/18 13:47:21;;;;;;;;;;;28.60;33.40;;;;;;5032057;28;19928;-61
2021/01/18 13:49:47;;;;;;;;;;;28.60;33.60;;;;;;5032092;28;19927;-57
2021/01/18 13:52:12;;;;;;;;;;;28.40;34.10;;;;;;5031629;28;19959;-56
2021/01/18 13:54:38;;;;;;;;;;;28.30;34.70;;;;;;5032452;28;19933;-57
2021/01/18 13:57:03;;;;;;;;;;;28.20;35.40;;;;;;5032178;28;19920;-56
2021/01/18 13:59:29;;;;;;;;;;;28.10;35.30;;;;;;5031958;28;20007;-57
2021/01/18 14:01:58;;;;;;;;;;;28.20;34.90;;;;;;5032128;28;20381;-53
2021/01/18 14:04:23;;;;;;;;;;;28.30;35.10;;;;;;5032267;28;20327;-54
2021/01/18 14:06:49;;;;;;;;;;;28.30;34.80;;;;;;5032345;28;19975;-56
2021/01/18 14:09:17;;;;;;;;;;;28.30;34.70;;;;;;5031897;28;19909;-52
2021/01/18 14:11:44;;;;;;;;;;;28.40;34.70;;;;;;5033132;28;20373;-69
2021/01/18 14:14:10;;;;;;;;;;;28.40;34.40;;;;;;5034289;28;19913;-61
2021/01/18 14:16:35;;;;;;;;;;;28.30;34.90;;;;;;5052468;28;20385;-63
2021/01/18 14:19:01;;;;;;;;;;;28.40;35.30;;;;;;5052621;28;19943;-60